LFPG 200500Z 12004KT CAVOK 14/09 Q1023 NOSIG

ElémentsDécodage
LFPG Station météo située sur l'aérodrome de PARIS Charles-de-Gaulle
200500Z émis le 20 du mois à 05h00 UTC
12004KT vent du 120°, 04 noeuds
CAVOK Ceiling And Visibility OK
- Visibilité de 10 Km ou plus
- Pas de nuage au-dessous de 1500m ou au-dessous de l'altitude minimale du secteur la plus élevée (si>1500m) et absence de CB
- pas de temps présent significatif
14/09 température 14°C, point de rosée 09°C
 soit une humidité relative de 72%
Q1023 la pression au niveau de la mer (QNH) est de 1023 hPa
NOSIG Pas de changement significatif prévu au cours des deux heures suivant l'heure de l'observation